Portada
METAR-TAF:

METAR-TAF

Aeroports :

Aeroport Internacional de Riga

Riga, Letònia

latitud: 56-55N, longitud: 023-58E, altitud: 10 m

Observació

L'informe es va fer fa 22 minuts, a les 16:50 UTC
Vent 10 kt del Nord/Nord-Est
Temperatura 0°C
Humitat 80%
Pressió 1026 hPa
Visibilitat 10 km o més
Cel cobert a una alçada de 2600 ft

METAR: EVRA 121650Z 02010KT 9999 OVC026 00/M03 Q1026 R36/290195 NOSIG

Hora: 19:12 (17:12 UTC)

Pronòstic

L'informe es va fer fa 3 hores i 8 minuts, a les 14:04 UTC
Pronòstic vàlid del 12 a les 15 UTC al 13 a les 15 UTC
Vent 7 kt del Nord/Nord-Est
Visibilitat 10 km o més
Cel cobert a una alçada de 2000 ft
Probabilitat 40% :
Temporalment
l' 12 a les 15 UTC al 13 a les 12 UTC
Cel ennuvolat a una alçada de 1000 ft
Cel cobert a una alçada de 2000 ft

TAF: EVRA 121404Z 1215/1315 03007KT 9999 OVC020 PROB40 TEMPO 1215/1312 BKN010 OVC020

Observacions i pronòstics meteorològics de més de 4000 aeroports (METAR i TAF).

Les estacions disponibles són els punts grocs i vermells al mapa.

Posi el ratolí al punt desitjat per veure el nom de l'estació.

Feu clic per veure les observacions i els pronòstics meteorològics.

Per canviar el mapa: feu clic els botons verds amb una creu de color negre per apropar; al botó verd amb un guió per allunyar la imatge; o en les fletxes verdes per a mapes adjacents.


METAR-TAF: